AUA25Y EDDH-LOWW
Flight info
| Callsign | AUA25Y |
|---|---|
| Flight time | 1h 12m |
| Altitude | 37000 |
| Route | RAMAR6G RAMAR Z998 RATMO DCT HDO DCT EVIKU DCT BITSI DCT MIKOV MIKOV8W |
| Aircraft | A321/M-SDE3FGHIRWY/LB1 |
Departure
| Time | 2026-04-30 19:10 |
|---|---|
| Airport | Hamburg Helmut Schmidt Airport (EDDH) |
Arrival
| Time | 2026-04-30 20:22 |
|---|---|
| Airport | Vienna International Airport (LOWW) |
| Time | Latitude | Longitude | Altitude | Speed | Heading |
|---|---|---|---|---|---|
| 2026-04-30 18:12 | 53.63419 | 10.00344 | 51 ft | 0 kts | 99° |
| 2026-04-30 18:14 | 53.63333 | 10.00346 | 51 ft | 0 kts | 86° |
| 2026-04-30 18:15 | 53.63294 | 10.00353 | 51 ft | 0 kts | 86° |
| 2026-04-30 18:19 | 53.63294 | 10.00352 | 51 ft | 0 kts | 86° |
| 2026-04-30 18:51 | 53.63294 | 10.00347 | 51 ft | 3 kts | 86° |
| 2026-04-30 18:51 | 53.63292 | 10.00315 | 51 ft | 3 kts | 86° |
| 2026-04-30 18:52 | 53.63294 | 10.00283 | 49 ft | 3 kts | 110° |
| 2026-04-30 18:52 | 53.63304 | 10.00254 | 48 ft | 3 kts | 142° |
| 2026-04-30 18:52 | 53.63315 | 10.00241 | 51 ft | 0 kts | 158° |
| 2026-04-30 18:52 | 53.63333 | 10.00234 | 51 ft | 3 kts | 177° |
| 2026-04-30 18:53 | 53.63337 | 10.00234 | 51 ft | 0 kts | 177° |
| 2026-04-30 18:56 | 53.63332 | 10.00234 | 51 ft | 2 kts | 178° |
| 2026-04-30 18:56 | 53.63283 | 10.00239 | 51 ft | 11 kts | 176° |
| 2026-04-30 18:57 | 53.63115 | 10.00259 | 51 ft | 9 kts | 176° |
| 2026-04-30 18:57 | 53.63057 | 10.00245 | 51 ft | 8 kts | 205° |
| 2026-04-30 18:57 | 53.63011 | 10.00199 | 50 ft | 7 kts | 211° |
| 2026-04-30 18:58 | 53.62949 | 10.00134 | 51 ft | 4 kts | 212° |
| 2026-04-30 18:58 | 53.62946 | 10.00130 | 51 ft | 0 kts | 212° |
| 2026-04-30 19:02 | 53.62933 | 10.00116 | 51 ft | 4 kts | 212° |
| 2026-04-30 19:02 | 53.62893 | 10.00073 | 50 ft | 3 kts | 213° |
| 2026-04-30 19:03 | 53.62872 | 10.00042 | 50 ft | 0 kts | 233° |
| 2026-04-30 19:04 | 53.62867 | 10.00029 | 50 ft | 3 kts | 238° |
| 2026-04-30 19:05 | 53.62849 | 9.99972 | 50 ft | 3 kts | 242° |
| 2026-04-30 19:05 | 53.62844 | 9.99956 | 48 ft | 0 kts | 243° |
| 2026-04-30 19:06 | 53.62839 | 9.99940 | 50 ft | 6 kts | 243° |
| 2026-04-30 19:06 | 53.62812 | 9.99852 | 49 ft | 6 kts | 243° |
| 2026-04-30 19:06 | 53.62833 | 9.99776 | 49 ft | 0 kts | 330° |
| 2026-04-30 19:09 | 53.62835 | 9.99774 | 49 ft | 3 kts | 330° |
| 2026-04-30 19:09 | 53.63003 | 9.99627 | 49 ft | 63 kts | 333° |
| 2026-04-30 19:09 | 53.63596 | 9.99115 | 50 ft | 126 kts | 333° |
| 2026-04-30 19:10 | 53.65575 | 9.97416 | 657 ft | 170 kts | 335° |
| 2026-04-30 19:10 | 53.67762 | 9.95538 | 1639 ft | 192 kts | 334° |
| 2026-04-30 19:11 | 53.69077 | 9.94719 | 1879 ft | 212 kts | 353° |
| 2026-04-30 19:11 | 53.72079 | 9.94851 | 3235 ft | 218 kts | 15° |
| 2026-04-30 19:11 | 53.73444 | 9.95931 | 3952 ft | 220 kts | 39° |
| 2026-04-30 19:12 | 53.74480 | 9.97962 | 4301 ft | 241 kts | 64° |
| 2026-04-30 19:12 | 53.75237 | 10.00611 | 4820 ft | 256 kts | 66° |
| 2026-04-30 19:12 | 53.76013 | 10.03349 | 5640 ft | 259 kts | 65° |
| 2026-04-30 19:13 | 53.77593 | 10.08860 | 7319 ft | 262 kts | 65° |
| 2026-04-30 19:13 | 53.79208 | 10.14466 | 8862 ft | 268 kts | 65° |
| 2026-04-30 19:13 | 53.79794 | 10.17459 | 9589 ft | 271 kts | 84° |
| 2026-04-30 19:14 | 53.79658 | 10.20658 | 10314 ft | 276 kts | 99° |
| 2026-04-30 19:14 | 53.79293 | 10.23900 | 10751 ft | 290 kts | 99° |
| 2026-04-30 19:14 | 53.78894 | 10.27386 | 10895 ft | 313 kts | 99° |
| 2026-04-30 19:14 | 53.78466 | 10.31097 | 11208 ft | 328 kts | 99° |
| 2026-04-30 19:15 | 53.78025 | 10.34909 | 11796 ft | 332 kts | 99° |
| 2026-04-30 19:15 | 53.77130 | 10.42648 | 13162 ft | 338 kts | 99° |
| 2026-04-30 19:15 | 53.76678 | 10.46553 | 13834 ft | 341 kts | 99° |
| 2026-04-30 19:16 | 53.76219 | 10.50507 | 14473 ft | 344 kts | 99° |
| 2026-04-30 19:16 | 53.75754 | 10.54485 | 15059 ft | 347 kts | 99° |
| 2026-04-30 19:16 | 53.74801 | 10.62608 | 16200 ft | 353 kts | 99° |
| 2026-04-30 19:17 | 53.74325 | 10.66643 | 16735 ft | 357 kts | 98° |
| 2026-04-30 19:17 | 53.73344 | 10.74939 | 17806 ft | 363 kts | 98° |
| 2026-04-30 19:17 | 53.72845 | 10.79142 | 18334 ft | 367 kts | 98° |
| 2026-04-30 19:18 | 53.71973 | 10.86260 | 19129 ft | 373 kts | 102° |
| 2026-04-30 19:18 | 53.70586 | 10.91706 | 19697 ft | 384 kts | 118° |
| 2026-04-30 19:18 | 53.68953 | 10.95248 | 20101 ft | 392 kts | 130° |
| 2026-04-30 19:19 | 53.66807 | 10.98244 | 20494 ft | 401 kts | 143° |
| 2026-04-30 19:19 | 53.64412 | 11.00711 | 20888 ft | 405 kts | 145° |
| 2026-04-30 19:19 | 53.59565 | 11.05655 | 21686 ft | 410 kts | 145° |
| 2026-04-30 19:20 | 53.57117 | 11.08151 | 22077 ft | 413 kts | 145° |
| 2026-04-30 19:20 | 53.54654 | 11.10657 | 22471 ft | 415 kts | 145° |
| 2026-04-30 19:20 | 53.49666 | 11.15707 | 23260 ft | 421 kts | 145° |
| 2026-04-30 19:21 | 53.47151 | 11.18253 | 23659 ft | 424 kts | 145° |
| 2026-04-30 19:21 | 53.42066 | 11.23389 | 24386 ft | 429 kts | 145° |
| 2026-04-30 19:22 | 53.36924 | 11.28577 | 25075 ft | 434 kts | 145° |
| 2026-04-30 19:22 | 53.29098 | 11.36428 | 26104 ft | 441 kts | 145° |
| 2026-04-30 19:23 | 53.21925 | 11.45952 | 27082 ft | 443 kts | 136° |
| 2026-04-30 19:24 | 53.17098 | 11.52454 | 27734 ft | 448 kts | 138° |
| 2026-04-30 19:24 | 53.14634 | 11.55667 | 28051 ft | 451 kts | 138° |
| 2026-04-30 19:24 | 53.09697 | 11.62167 | 28689 ft | 455 kts | 137° |
| 2026-04-30 19:25 | 53.02271 | 11.72177 | 29594 ft | 461 kts | 137° |
| 2026-04-30 19:26 | 52.97272 | 11.78930 | 30151 ft | 465 kts | 137° |
| 2026-04-30 19:26 | 52.92217 | 11.85694 | 30627 ft | 469 kts | 137° |
| 2026-04-30 19:26 | 52.89668 | 11.89083 | 30847 ft | 470 kts | 137° |
| 2026-04-30 19:27 | 52.84570 | 11.95870 | 31381 ft | 469 kts | 137° |
| 2026-04-30 19:27 | 52.79495 | 12.02615 | 32000 ft | 467 kts | 137° |
| 2026-04-30 19:28 | 52.76966 | 12.05965 | 32316 ft | 466 kts | 137° |
| 2026-04-30 19:28 | 52.71911 | 12.12630 | 32927 ft | 464 kts | 137° |
| 2026-04-30 19:29 | 52.66872 | 12.19262 | 33540 ft | 463 kts | 137° |
| 2026-04-30 19:29 | 52.64361 | 12.22563 | 33848 ft | 462 kts | 137° |
| 2026-04-30 19:30 | 52.56847 | 12.32423 | 34698 ft | 459 kts | 137° |
| 2026-04-30 19:30 | 52.51843 | 12.38952 | 35177 ft | 459 kts | 137° |
| 2026-04-30 19:31 | 52.46847 | 12.45455 | 35632 ft | 458 kts | 137° |
| 2026-04-30 19:31 | 52.44346 | 12.48707 | 35859 ft | 458 kts | 137° |
| 2026-04-30 19:31 | 52.39346 | 12.55180 | 36298 ft | 458 kts | 137° |
| 2026-04-30 19:32 | 52.36844 | 12.58407 | 36510 ft | 458 kts | 137° |
| 2026-04-30 19:32 | 52.34342 | 12.61629 | 36732 ft | 458 kts | 137° |
| 2026-04-30 19:32 | 52.31840 | 12.64853 | 36941 ft | 458 kts | 137° |
| 2026-04-30 19:32 | 52.29340 | 12.68071 | 37141 ft | 458 kts | 137° |
| 2026-04-30 19:33 | 52.26841 | 12.71285 | 37339 ft | 457 kts | 137° |
| 2026-04-30 19:33 | 52.24342 | 12.74495 | 37426 ft | 457 kts | 137° |
| 2026-04-30 19:33 | 52.19352 | 12.80882 | 37434 ft | 455 kts | 137° |
| 2026-04-30 19:34 | 52.14369 | 12.87228 | 37438 ft | 455 kts | 136° |
| 2026-04-30 19:35 | 52.06898 | 12.96739 | 37433 ft | 455 kts | 136° |
| 2026-04-30 19:35 | 52.01907 | 13.03059 | 37436 ft | 455 kts | 136° |
| 2026-04-30 19:36 | 51.97722 | 13.08349 | 37444 ft | 455 kts | 136° |
| 2026-04-30 19:36 | 51.90228 | 13.17793 | 37449 ft | 455 kts | 136° |
| 2026-04-30 19:37 | 51.85226 | 13.24069 | 37453 ft | 455 kts | 136° |
| 2026-04-30 19:37 | 51.80222 | 13.30330 | 37456 ft | 455 kts | 136° |
| 2026-04-30 19:38 | 51.75211 | 13.36590 | 37455 ft | 456 kts | 137° |
| 2026-04-30 19:38 | 51.69903 | 13.42328 | 37438 ft | 460 kts | 141° |
| 2026-04-30 19:39 | 51.64512 | 13.47918 | 37441 ft | 461 kts | 141° |
| 2026-04-30 19:39 | 51.59102 | 13.53494 | 37436 ft | 462 kts | 141° |
| 2026-04-30 19:40 | 51.53685 | 13.59050 | 37433 ft | 462 kts | 141° |
| 2026-04-30 19:40 | 51.48275 | 13.64638 | 37440 ft | 459 kts | 136° |
| 2026-04-30 19:41 | 51.43353 | 13.71048 | 37455 ft | 455 kts | 134° |
| 2026-04-30 19:41 | 51.38477 | 13.77496 | 37462 ft | 455 kts | 134° |
| 2026-04-30 19:42 | 51.33597 | 13.83934 | 37456 ft | 454 kts | 134° |
| 2026-04-30 19:42 | 51.28714 | 13.90358 | 37457 ft | 454 kts | 134° |
| 2026-04-30 19:43 | 51.23828 | 13.96745 | 37463 ft | 454 kts | 134° |
| 2026-04-30 19:44 | 51.16482 | 14.06307 | 37469 ft | 454 kts | 134° |
| 2026-04-30 19:44 | 51.11586 | 14.12664 | 37465 ft | 454 kts | 134° |
| 2026-04-30 19:45 | 51.06684 | 14.19008 | 37466 ft | 454 kts | 134° |
| 2026-04-30 19:45 | 51.01787 | 14.25337 | 37466 ft | 454 kts | 134° |
| 2026-04-30 19:46 | 50.96887 | 14.31655 | 37472 ft | 454 kts | 134° |
| 2026-04-30 19:46 | 50.91436 | 14.36939 | 37459 ft | 469 kts | 152° |
| 2026-04-30 19:47 | 50.85086 | 14.39732 | 37453 ft | 476 kts | 161° |
| 2026-04-30 19:47 | 50.78640 | 14.42130 | 37452 ft | 476 kts | 161° |
| 2026-04-30 19:48 | 50.72193 | 14.44547 | 37446 ft | 476 kts | 161° |
| 2026-04-30 19:48 | 50.65742 | 14.46940 | 37450 ft | 476 kts | 161° |
| 2026-04-30 19:49 | 50.59288 | 14.49308 | 37448 ft | 477 kts | 161° |
| 2026-04-30 19:49 | 50.49649 | 14.53067 | 37447 ft | 471 kts | 153° |
| 2026-04-30 19:50 | 50.43980 | 14.57791 | 37447 ft | 455 kts | 136° |
| 2026-04-30 19:50 | 50.39362 | 14.64354 | 37432 ft | 447 kts | 128° |
| 2026-04-30 19:51 | 50.34902 | 14.71139 | 37441 ft | 447 kts | 128° |
| 2026-04-30 19:51 | 50.30416 | 14.77906 | 37447 ft | 448 kts | 128° |
| 2026-04-30 19:52 | 50.25917 | 14.84650 | 37447 ft | 448 kts | 128° |
| 2026-04-30 19:52 | 50.21412 | 14.91404 | 37440 ft | 449 kts | 128° |
| 2026-04-30 19:53 | 50.16906 | 14.98145 | 37447 ft | 449 kts | 128° |
| 2026-04-30 19:53 | 50.12402 | 15.04896 | 37437 ft | 449 kts | 128° |
| 2026-04-30 19:54 | 50.07891 | 15.11627 | 37434 ft | 450 kts | 128° |
| 2026-04-30 19:54 | 50.03361 | 15.18338 | 37437 ft | 450 kts | 128° |
| 2026-04-30 19:55 | 49.98828 | 15.25056 | 37433 ft | 450 kts | 128° |
| 2026-04-30 19:55 | 49.94297 | 15.31759 | 37434 ft | 450 kts | 128° |
| 2026-04-30 19:56 | 49.89720 | 15.38509 | 37434 ft | 451 kts | 128° |
| 2026-04-30 19:56 | 49.85194 | 15.45153 | 37431 ft | 451 kts | 128° |
| 2026-04-30 19:57 | 49.80632 | 15.51835 | 37433 ft | 451 kts | 128° |
| 2026-04-30 19:57 | 49.76065 | 15.58506 | 37435 ft | 452 kts | 128° |
| 2026-04-30 19:58 | 49.71458 | 15.65213 | 37435 ft | 452 kts | 129° |
| 2026-04-30 19:58 | 49.66907 | 15.71820 | 37431 ft | 452 kts | 129° |
| 2026-04-30 19:59 | 49.62321 | 15.78477 | 36879 ft | 456 kts | 128° |
| 2026-04-30 19:59 | 49.57680 | 15.85203 | 35248 ft | 459 kts | 127° |
| 2026-04-30 20:00 | 49.55318 | 15.88611 | 34371 ft | 461 kts | 127° |
| 2026-04-30 20:00 | 49.52999 | 15.91947 | 33395 ft | 462 kts | 127° |
| 2026-04-30 20:00 | 49.50619 | 15.95361 | 32482 ft | 462 kts | 127° |
| 2026-04-30 20:00 | 49.48317 | 15.98645 | 31979 ft | 452 kts | 126° |
| 2026-04-30 20:01 | 49.43761 | 16.05136 | 30795 ft | 441 kts | 126° |
| 2026-04-30 20:01 | 49.41533 | 16.08324 | 30178 ft | 436 kts | 125° |
| 2026-04-30 20:01 | 49.39303 | 16.11518 | 29603 ft | 429 kts | 126° |
| 2026-04-30 20:02 | 49.34992 | 16.17670 | 28510 ft | 416 kts | 126° |
| 2026-04-30 20:02 | 49.32883 | 16.20669 | 27981 ft | 410 kts | 126° |
| 2026-04-30 20:03 | 49.28128 | 16.25657 | 26918 ft | 422 kts | 143° |
| 2026-04-30 20:03 | 49.25503 | 16.27605 | 26397 ft | 417 kts | 144° |
| 2026-04-30 20:03 | 49.22902 | 16.29518 | 25889 ft | 412 kts | 144° |
| 2026-04-30 20:03 | 49.20333 | 16.31401 | 25392 ft | 407 kts | 144° |
| 2026-04-30 20:04 | 49.17800 | 16.33263 | 24910 ft | 401 kts | 144° |
| 2026-04-30 20:04 | 49.15309 | 16.35099 | 24434 ft | 395 kts | 144° |
| 2026-04-30 20:04 | 49.12848 | 16.36918 | 23990 ft | 390 kts | 144° |
| 2026-04-30 20:05 | 49.08034 | 16.40469 | 23069 ft | 378 kts | 145° |
| 2026-04-30 20:05 | 49.05676 | 16.42204 | 22654 ft | 375 kts | 145° |
| 2026-04-30 20:05 | 49.01008 | 16.45643 | 21805 ft | 370 kts | 145° |
| 2026-04-30 20:06 | 48.98697 | 16.47342 | 21377 ft | 368 kts | 146° |
| 2026-04-30 20:06 | 48.96401 | 16.49028 | 20940 ft | 365 kts | 146° |
| 2026-04-30 20:06 | 48.94117 | 16.50700 | 20503 ft | 363 kts | 146° |
| 2026-04-30 20:06 | 48.91849 | 16.52360 | 20060 ft | 361 kts | 146° |
| 2026-04-30 20:07 | 48.89598 | 16.54006 | 19613 ft | 358 kts | 147° |
| 2026-04-30 20:07 | 48.87355 | 16.55642 | 19170 ft | 356 kts | 147° |
| 2026-04-30 20:07 | 48.82908 | 16.58873 | 18240 ft | 352 kts | 147° |
| 2026-04-30 20:08 | 48.80705 | 16.60471 | 17799 ft | 349 kts | 148° |
| 2026-04-30 20:08 | 48.78479 | 16.61941 | 17367 ft | 350 kts | 155° |
| 2026-04-30 20:08 | 48.76083 | 16.62893 | 16941 ft | 366 kts | 162° |
| 2026-04-30 20:08 | 48.73569 | 16.63722 | 16486 ft | 371 kts | 162° |
| 2026-04-30 20:09 | 48.71054 | 16.64549 | 16039 ft | 369 kts | 162° |
| 2026-04-30 20:09 | 48.68550 | 16.65372 | 15591 ft | 366 kts | 162° |
| 2026-04-30 20:09 | 48.63606 | 16.66988 | 14722 ft | 360 kts | 163° |
| 2026-04-30 20:10 | 48.58741 | 16.68551 | 13821 ft | 356 kts | 166° |
| 2026-04-30 20:10 | 48.56270 | 16.68797 | 13383 ft | 357 kts | 179° |
| 2026-04-30 20:10 | 48.53798 | 16.68464 | 12953 ft | 356 kts | 182° |
| 2026-04-30 20:11 | 48.48921 | 16.67703 | 12098 ft | 349 kts | 183° |
| 2026-04-30 20:11 | 48.46518 | 16.67332 | 11679 ft | 346 kts | 183° |
| 2026-04-30 20:11 | 48.44135 | 16.66967 | 11266 ft | 343 kts | 183° |
| 2026-04-30 20:12 | 48.39500 | 16.66261 | 10644 ft | 327 kts | 184° |
| 2026-04-30 20:12 | 48.37283 | 16.65923 | 10510 ft | 314 kts | 184° |
| 2026-04-30 20:12 | 48.35858 | 16.65707 | 10323 ft | 309 kts | 184° |
| 2026-04-30 20:13 | 48.33739 | 16.65388 | 9952 ft | 304 kts | 184° |
| 2026-04-30 20:13 | 48.31648 | 16.65071 | 9537 ft | 301 kts | 184° |
| 2026-04-30 20:13 | 48.29572 | 16.64755 | 9123 ft | 298 kts | 184° |
| 2026-04-30 20:13 | 48.27517 | 16.64441 | 8717 ft | 296 kts | 184° |
| 2026-04-30 20:14 | 48.25479 | 16.64130 | 8323 ft | 294 kts | 184° |
| 2026-04-30 20:14 | 48.23451 | 16.63823 | 7933 ft | 292 kts | 185° |
| 2026-04-30 20:14 | 48.21435 | 16.63639 | 7530 ft | 289 kts | 174° |
| 2026-04-30 20:14 | 48.20765 | 16.63760 | 7397 ft | 287 kts | 167° |
| 2026-04-30 20:15 | 48.19938 | 16.64084 | 7256 ft | 284 kts | 158° |
| 2026-04-30 20:15 | 48.18214 | 16.65475 | 6839 ft | 279 kts | 138° |
| 2026-04-30 20:15 | 48.16927 | 16.67591 | 6429 ft | 273 kts | 118° |
| 2026-04-30 20:15 | 48.16062 | 16.70098 | 6041 ft | 271 kts | 112° |
| 2026-04-30 20:16 | 48.15233 | 16.72620 | 5659 ft | 270 kts | 112° |
| 2026-04-30 20:16 | 48.14399 | 16.75132 | 5277 ft | 268 kts | 112° |
| 2026-04-30 20:16 | 48.13568 | 16.77629 | 4888 ft | 267 kts | 112° |
| 2026-04-30 20:16 | 48.12742 | 16.80107 | 4491 ft | 265 kts | 112° |
| 2026-04-30 20:17 | 48.11696 | 16.82349 | 4261 ft | 263 kts | 137° |
| 2026-04-30 20:17 | 48.10091 | 16.83504 | 4183 ft | 255 kts | 169° |
| 2026-04-30 20:17 | 48.08375 | 16.83280 | 4059 ft | 245 kts | 201° |
| 2026-04-30 20:17 | 48.06844 | 16.82231 | 3939 ft | 241 kts | 206° |
| 2026-04-30 20:18 | 48.05380 | 16.81035 | 3814 ft | 239 kts | 223° |
| 2026-04-30 20:18 | 48.04525 | 16.79013 | 3669 ft | 230 kts | 262° |
| 2026-04-30 20:18 | 48.04626 | 16.76737 | 3484 ft | 214 kts | 296° |
| 2026-04-30 20:18 | 48.05249 | 16.74773 | 3213 ft | 205 kts | 302° |
| 2026-04-30 20:19 | 48.05882 | 16.72884 | 2937 ft | 196 kts | 301° |
| 2026-04-30 20:19 | 48.06465 | 16.71121 | 2667 ft | 188 kts | 302° |
| 2026-04-30 20:19 | 48.07041 | 16.69364 | 2397 ft | 183 kts | 302° |
| 2026-04-30 20:19 | 48.07587 | 16.67703 | 2175 ft | 178 kts | 302° |
| 2026-04-30 20:20 | 48.08124 | 16.66059 | 1918 ft | 175 kts | 301° |
| 2026-04-30 20:20 | 48.08629 | 16.64497 | 1741 ft | 158 kts | 301° |
| 2026-04-30 20:20 | 48.09109 | 16.63033 | 1428 ft | 151 kts | 299° |
| 2026-04-30 20:20 | 48.09557 | 16.61661 | 1193 ft | 143 kts | 298° |
| 2026-04-30 20:21 | 48.09977 | 16.60373 | 1017 ft | 136 kts | 298° |
| 2026-04-30 20:21 | 48.10397 | 16.59104 | 848 ft | 136 kts | 298° |
| 2026-04-30 20:21 | 48.10809 | 16.57833 | 698 ft | 136 kts | 297° |
| 2026-04-30 20:21 | 48.11226 | 16.56573 | 612 ft | 126 kts | 297° |
| 2026-04-30 20:22 | 48.11514 | 16.55696 | 618 ft | 55 kts | 296° |
| 2026-04-30 20:22 | 48.11650 | 16.55361 | 620 ft | 28 kts | 314° |
| 2026-04-30 20:22 | 48.11759 | 16.55202 | 620 ft | 20 kts | 315° |
| 2026-04-30 20:22 | 48.11854 | 16.55141 | 614 ft | 11 kts | 11° |
| 2026-04-30 20:23 | 48.11875 | 16.55228 | 624 ft | 10 kts | 112° |
| 2026-04-30 20:23 | 48.11845 | 16.55320 | 621 ft | 10 kts | 117° |
| 2026-04-30 20:23 | 48.11807 | 16.55439 | 613 ft | 16 kts | 116° |
| 2026-04-30 20:23 | 48.11759 | 16.55584 | 616 ft | 15 kts | 116° |
| 2026-04-30 20:24 | 48.11712 | 16.55728 | 621 ft | 15 kts | 117° |
| 2026-04-30 20:24 | 48.11666 | 16.55869 | 618 ft | 15 kts | 115° |
| 2026-04-30 20:24 | 48.11620 | 16.56009 | 617 ft | 15 kts | 116° |
| 2026-04-30 20:24 | 48.11589 | 16.56112 | 616 ft | 9 kts | 105° |
| 2026-04-30 20:25 | 48.11656 | 16.56241 | 626 ft | 9 kts | 33° |
| 2026-04-30 20:25 | 48.11711 | 16.56283 | 612 ft | 8 kts | 27° |
| 2026-04-30 20:26 | 48.11754 | 16.56364 | 612 ft | 5 kts | 95° |
| 2026-04-30 20:26 | 48.11725 | 16.56467 | 623 ft | 6 kts | 116° |
| 2026-04-30 20:26 | 48.11723 | 16.56517 | 618 ft | 4 kts | 70° |
| 2026-04-30 20:27 | 48.11759 | 16.56558 | 624 ft | 2 kts | 25° |
| 2026-04-30 20:27 | 48.11774 | 16.56570 | 622 ft | 0 kts | 26° |
| 2026-04-30 20:28 | 48.11776 | 16.56571 | 621 ft | 0 kts | 26° |